Flight Track Log - Related Links

Times and Time Zones

All times are in EDT time to prevent confusion due to time zone crossing. See the DAL174 flight status page for this flight to view local times or setup timezone preferences in your user account.

Time Position Orientation Groundspeed Altitude Reporting Facility
EDT Latitude Longitude Course Direction KTS MPH feet Rate Location/Type
Tue 03:20:04 PM 33.6333 -84.3833 53° Northeast 184 212 2,300  Level Atlanta TRACON
Tue 03:21:04 PM 33.6333 -84.3167 90° East 238 274 3,900 2,233 Climbing Atlanta TRACON
Tue 03:22:00 PM 33.7523 -83.9741 54° Northeast  Level FlightAware Approximate
Tue 03:23:00 PM 33.8285 -83.8471 54° Northeast  Level FlightAware Approximate
Tue 03:23:04 PM 33.6333 -84.1333 90° East 276 318 9,000  Level Atlanta TRACON
Tue 03:24:00 PM 33.9102 -83.7253 48° Northeast  Level FlightAware Approximate
Tue 03:24:06 PM 33.6689 -84.0539 62° Northeast 295 339 10,600  Level Atlanta Center
Tue 03:25:00 PM 33.9891 -83.6005 53° Northeast  Level FlightAware Approximate
Tue 03:25:06 PM 33.7317 -83.9739 47° Northeast 302 348 12,500  Level Atlanta Center
Tue 03:26:06 PM 33.8003 -83.8864 47° Northeast 331 381 14,100 1,850 Climbing Atlanta Center
Tue 03:27:06 PM 33.8733 -83.7911 47° Northeast 363 418 16,200 1,900 Climbing Atlanta Center
Tue 03:28:06 PM 33.9483 -83.6883 49° Northeast 389 448 17,900 1,800 Climbing Atlanta Center
Tue 03:29:06 PM 34.0167 -83.5803 53° Northeast 404 465 19,800 1,750 Climbing Atlanta Center
Tue 03:30:06 PM 34.0850 -83.4694 53° Northeast 410 472 21,400 1,500 Climbing Atlanta Center
Tue 03:31:06 PM 34.1575 -83.3533 53° Northeast 425 489 22,800 1,450 Climbing Atlanta Center
Tue 03:32:06 PM 34.2383 -83.2272 52° Northeast 425 489 24,300 1,450 Climbing Atlanta Center
Tue 03:33:06 PM 34.3144 -83.1058 53° Northeast 440 506 25,700 1,400 Climbing Atlanta Center
Tue 03:34:06 PM 34.3908 -82.9842 53° Northeast 449 517 27,100 1,550 Climbing Atlanta Center
Tue 03:35:06 PM 34.4647 -82.8647 53° Northeast 449 517 28,800 1,550 Climbing Atlanta Center
Tue 03:36:06 PM 34.5386 -82.7400 54° Northeast 449 517 30,200 1,100 Climbing Atlanta Center
Tue 03:37:06 PM 34.6125 -82.6228 53° Northeast 442 509 31,000 400 Climbing Atlanta Center
Tue 03:38:06 PM 34.6842 -82.5031 54° Northeast 437 503 31,000  Level Atlanta Center
Tue 03:39:06 PM 34.7556 -82.3853 54° Northeast 437 503 31,000  Level Atlanta Center
Tue 03:40:06 PM 34.8311 -82.2675 52° Northeast 442 509 31,000  Level Atlanta Center
Tue 03:41:06 PM 34.9044 -82.1417 55° Northeast 442 509 31,000  Level Atlanta Center
Tue 03:42:06 PM 34.9778 -82.0236 53° Northeast 442 509 31,000  Level Atlanta Center
Tue 03:43:06 PM 35.0486 -81.9025 54° Northeast 442 509 31,000  Level Atlanta Center
Tue 03:44:06 PM 35.1153 -81.7739 58° Northeast 442 509 31,000  Level Atlanta Center
Tue 03:45:06 PM 35.1817 -81.6475 57° Northeast 442 509 31,000  Level Atlanta Center
Tue 03:46:06 PM 35.2481 -81.5211 57° Northeast 444 511 31,000  Level Atlanta Center
Tue 03:47:06 PM 35.3142 -81.3942 57° Northeast 444 511 31,000  Level Atlanta Center
Tue 03:48:06 PM 35.3803 -81.2647 58° Northeast 444 511 31,000  Level Atlanta Center
Tue 03:49:06 PM 35.4461 -81.1350 58° Northeast 444 511 31,000  Level Atlanta Center
Tue 03:50:06 PM 35.5158 -81.0050 57° Northeast 444 511 31,000  Level Atlanta Center
Tue 03:51:06 PM 35.5836 -80.8747 57° Northeast 444 511 31,000  Level Atlanta Center
Tue 03:52:06 PM 35.6511 -80.7469 57° Northeast 444 511 31,000  Level Atlanta Center
Tue 03:53:06 PM 35.7186 -80.6164 57° Northeast 444 511 31,000  Level Atlanta Center
Tue 03:54:06 PM 35.7858 -80.4856 58° Northeast 444 511 31,000  Level Atlanta Center
Tue 03:55:06 PM 35.8508 -80.3572 58° Northeast 444 511 31,000  Level Atlanta Center
Tue 03:56:06 PM 35.9158 -80.2311 58° Northeast 444 511 31,000  Level Atlanta Center
Tue 03:58:29 PM 36.0667 -79.9425 57° Northeast 447 514 31,000  Level Washington Center
Tue 03:59:30 PM 36.1378 -79.8178 55° Northeast 433 498 31,000 50 Level Washington Center
Tue 04:00:28 PM 36.2156 -79.6803 55° Northeast 433 498 31,100 454 Climbing Washington Center
Tue 04:01:29 PM 36.2867 -79.5500 56° Northeast 438 504 31,900 689 Climbing Washington Center
Tue 04:02:30 PM 36.3508 -79.4425 53° Northeast 438 504 32,500 545 Climbing Washington Center
Tue 04:03:30 PM 36.4264 -79.2964 57° Northeast 438 504 33,000 250 Climbing Washington Center
Tue 04:04:30 PM 36.4989 -79.1706 54° Northeast 449 517 33,000  Level Washington Center
Tue 04:05:28 PM 36.5650 -79.0597 53° Northeast 449 517 33,000  Level Washington Center
Tue 04:06:29 PM 36.6372 -78.9336 54° Northeast 449 517 33,000  Level Washington Center
Tue 04:07:30 PM 36.7014 -78.8042 58° Northeast 443 510 33,000  Level Washington Center
Tue 04:08:28 PM 36.7717 -78.6750 56° Northeast 443 510 33,000  Level Washington Center
Tue 04:09:28 PM 36.8783 -78.5753 37° Northeast 443 510 33,000  Level Washington Center
Tue 04:10:29 PM 36.9847 -78.4936 32° Northeast 443 510 33,000  Level Washington Center
Tue 04:11:30 PM 37.0950 -78.4169 29° Northeast 443 510 33,000  Level Washington Center
Tue 04:12:28 PM 37.1925 -78.3528 28° Northeast 443 510 33,000  Level Washington Center
Tue 04:13:29 PM 37.3047 -78.2811 27° Northeast 443 510 33,000  Level Washington Center
Tue 04:14:29 PM 37.4189 -78.2119 26° Northeast 437 503 33,000  Level Washington Center
Tue 04:15:29 PM 37.5414 -78.1403 25° Northeast 437 503 33,000  Level Washington Center
Tue 04:16:30 PM 37.6575 -78.0708 25° Northeast 437 503 33,000  Level Washington Center
Tue 04:17:31 PM 37.7575 -77.9742 37° Northeast 448 516 33,000  Level Washington Center
Tue 04:18:28 PM 37.8453 -77.8558 47° Northeast 448 516 33,000  Level Washington Center
Tue 04:19:28 PM 37.9308 -77.7375 47° Northeast 448 516 33,000  Level Washington Center
Tue 04:20:29 PM 38.0164 -77.6133 49° Northeast 453 521 33,000  Level Washington Center
Tue 04:21:30 PM 38.0683 -77.5067 58° Northeast 458 527 33,000  Level Washington Center
Tue 04:22:30 PM 38.1522 -77.3425 57° Northeast 453 521 33,000  Level Washington Center
Tue 04:23:28 PM 38.2228 -77.2067 56° Northeast 453 521 33,000  Level Washington Center
Tue 04:24:29 PM 38.2933 -77.0706 57° Northeast 458 527 33,000  Level Washington Center
Tue 04:25:28 PM 38.3617 -76.9394 56° Northeast 453 521 33,000  Level Washington Center
Tue 04:26:29 PM 38.4403 -76.8111 52° Northeast 453 521 33,000  Level Washington Center
Tue 04:27:30 PM 38.5308 -76.6983 44° Northeast 453 521 33,000  Level Washington Center
Tue 04:28:28 PM 38.6175 -76.5856 45° Northeast 448 516 33,000  Level Washington Center
Tue 04:29:29 PM 38.7078 -76.4750 44° Northeast 443 510 33,000  Level Washington Center
Tue 04:30:29 PM 38.7983 -76.3561 46° Northeast 443 510 33,000  Level Washington Center
Tue 04:31:28 PM 38.8867 -76.2422 45° Northeast 448 516 33,000  Level Washington Center
Tue 04:32:28 PM 38.9789 -76.1256 45° Northeast 448 516 33,000  Level Washington Center
Tue 04:33:30 PM 39.0711 -76.0114 44° Northeast 453 521 33,000  Level Washington Center
Tue 04:34:30 PM 39.1589 -75.8942 46° Northeast 453 521 33,000  Level Washington Center
Tue 04:35:29 PM 39.2508 -75.7739 45° Northeast 453 521 33,000  Level Washington Center
Tue 04:36:29 PM 39.3386 -75.6586 45° Northeast 458 527 33,000  Level Washington Center
Tue 04:37:30 PM 39.4303 -75.5378 45° Northeast 458 527 33,000  Level Washington Center
Tue 04:38:28 PM 39.5197 -75.4194 46° Northeast 458 527 33,000  Level Washington Center
Tue 04:39:28 PM 39.6111 -75.2981 46° Northeast 458 527 33,000  Level Washington Center
Tue 04:41:19 PM 39.7636 -75.0864 47° Northeast 472 543 33,000  Level New York Center
Tue 04:42:20 PM 39.8622 -74.9544 46° Northeast 472 543 33,000  Level New York Center
Tue 04:43:20 PM 39.9319 -74.8639 45° Northeast 460 529 33,000  Level New York Center
Tue 04:44:19 PM 40.0369 -74.7211 46° Northeast 460 529 33,000  Level New York Center
Tue 04:45:20 PM 40.1222 -74.5983 48° Northeast 460 529 33,000  Level New York Center
Tue 04:46:17 PM 40.1944 -74.4964 47° Northeast 465 535 33,000  Level New York Center
Tue 04:47:52 PM 40.3367 -74.2858 48° Northeast 482 555 33,000  Level Boston Center
Tue 04:48:52 PM 40.4219 -74.1628 48° Northeast 471 542 33,000  Level Boston Center
Tue 04:49:52 PM 40.5094 -74.0369 48° Northeast 466 536 33,000  Level Boston Center
Tue 04:50:52 PM 40.5858 -73.9322 46° Northeast 459 528 33,000  Level Boston Center
Tue 04:51:52 PM 40.6897 -73.7811 48° Northeast 459 528 33,000  Level Boston Center
Tue 04:52:52 PM 40.7642 -73.6622 50° Northeast 464 534 33,000  Level Boston Center
Tue 04:53:52 PM 40.8486 -73.5347 49° Northeast 464 534 33,000  Level Boston Center
Tue 04:54:52 PM 40.9333 -73.4072 49° Northeast 459 528 33,000  Level Boston Center
Tue 04:55:52 PM 41.0261 -73.2711 48° Northeast 454 522 33,000  Level Boston Center
Tue 04:56:52 PM 41.1103 -73.1453 48° Northeast 454 522 33,000  Level Boston Center
Tue 04:57:52 PM 41.1986 -73.0167 48° Northeast 454 522 33,000  Level Boston Center
Tue 04:58:52 PM 41.2783 -72.8958 49° Northeast 463 533 33,000  Level Boston Center
Tue 04:59:52 PM 41.3619 -72.7664 49° Northeast 469 540 33,000  Level Boston Center
Tue 05:00:52 PM 41.4478 -72.6339 49° Northeast 469 540 33,000  Level Boston Center
Tue 05:01:52 PM 41.5231 -72.4928 54° Northeast 469 540 33,000  Level Boston Center
Tue 05:02:52 PM 41.5792 -72.3208 66° East 454 522 33,000  Level Boston Center
Tue 05:03:52 PM 41.6311 -72.1567 67° East 460 529 33,000  Level Boston Center
Tue 05:04:52 PM 41.6806 -71.9953 68° East 467 537 33,000  Level Boston Center
Tue 05:05:52 PM 41.7319 -71.8336 67° East 472 543 33,000  Level Boston Center
Tue 05:07:04 PM 41.7850 -71.6689 67° East 472 543 33,000  Level Boston Center
Tue 05:08:04 PM 41.8483 -71.4786 66° East 472 543 33,000  Level Boston Center
Tue 05:09:04 PM 41.9008 -71.3161 66° East 472 543 33,000  Level Boston Center
Tue 05:10:04 PM 41.9533 -71.1475 67° East 477 549 33,000  Level Boston Center
Tue 05:11:04 PM 42.0033 -70.9844 68° East 477 549 33,000  Level Boston Center
Tue 05:12:04 PM 42.0492 -70.8297 68° East 485 558 33,000  Level Boston Center
Tue 05:13:04 PM 42.0989 -70.6661 68° East 480 552 33,000  Level Boston Center
Tue 05:14:04 PM 42.1425 -70.5333 66° East 480 552 33,000  Level Boston Center
Tue 05:15:04 PM 42.2017 -70.3325 68° East 475 547 33,000  Level Boston Center
Tue 05:16:04 PM 42.2506 -70.1653 68° East 475 547 33,000  Level Boston Center
Tue 05:17:04 PM 42.3114 -69.9833 66° East 480 552 33,000  Level Boston Center
Tue 05:18:04 PM 42.3539 -69.8328 69° East 480 552 33,000  Level Boston Center
Tue 05:19:04 PM 42.4019 -69.6706 68° East 475 547 33,000  Level Boston Center
Tue 05:20:04 PM 42.4500 -69.5053 68° East 470 541 33,000  Level Boston Center
Tue 05:21:04 PM 42.4978 -69.3367 69° East 475 547 33,000  Level Boston Center
Tue 05:22:04 PM 42.5472 -69.1708 68° East 475 547 33,000  Level Boston Center
Tue 05:23:04 PM 42.5981 -68.9903 69° East 460 529 33,000  Level Boston Center
Tue 05:24:04 PM 42.6472 -68.8267 68° East 460 529 33,000  Level Boston Center
Tue 05:25:04 PM 42.6847 -68.6944 69° East 460 529 33,000  Level Boston Center
Tue 05:25:41 PM 42.7000 -68.5500 82° East 470 541 33,000  Level Moncton Center
Tue 05:26:41 PM 42.7667 -68.4000 59° Northeast 470 541 33,000  Level Moncton Center
Tue 05:27:41 PM 42.8000 -68.2167 76° East 470 541 33,000  Level Moncton Center
Tue 05:28:41 PM 42.8333 -68.0667 73° East 470 541 33,000  Level Moncton Center
Tue 05:29:41 PM 42.9000 -67.8833 64° Northeast 480 552 33,000  Level Moncton Center
Tue 05:30:41 PM 42.9333 -67.7000 76° East 480 552 33,000  Level Moncton Center
Tue 05:31:16 PM 42.9839 -67.6169 50° Northeast 477 549 33,000  Level Boston Center
Tue 05:32:16 PM 43.0308 -67.4456 69° East 477 549 33,000  Level Boston Center
Tue 05:33:16 PM 43.0772 -67.2711 70° East 477 549 33,000  Level Boston Center
Tue 05:34:16 PM 43.1236 -67.0992 70° East 477 549 33,000  Level Boston Center
Tue 05:35:41 PM 43.1833 -66.8500 72° East 480 552 33,000  Level Moncton Center
Tue 05:36:41 PM 43.2667 -66.6833 55° Northeast 480 552 33,000  Level Moncton Center
Tue 05:37:41 PM 43.3167 -66.5333 65° Northeast 490 564 33,000  Level Moncton Center
Tue 05:38:41 PM 43.3833 -66.3500 63° Northeast 480 552 33,000  Level Moncton Center
Tue 05:39:41 PM 43.4333 -66.2000 65° Northeast 490 564 33,000  Level Moncton Center
Tue 05:40:41 PM 43.5000 -66.0333 61° Northeast 490 564 33,000  Level Moncton Center
Tue 05:41:41 PM 43.5833 -65.8667 55° Northeast 490 564 33,000  Level Moncton Center
Tue 05:42:41 PM 43.6500 -65.6833 63° Northeast 490 564 33,000  Level Moncton Center
Tue 05:43:41 PM 43.7000 -65.5333 65° Northeast 490 564 33,000  Level Moncton Center
Tue 05:44:41 PM 43.7667 -65.3500 63° Northeast 490 564 33,000  Level Moncton Center
Tue 05:45:41 PM 43.8333 -65.1833 61° Northeast 490 564 33,000  Level Moncton Center
Tue 05:46:41 PM 43.8833 -65.0167 67° East 490 564 33,000  Level Moncton Center
Tue 05:47:41 PM 43.9500 -64.8667 58° Northeast 490 564 33,000  Level Moncton Center
Tue 05:48:41 PM 44.0000 -64.7000 67° East 490 564 33,000  Level Moncton Center
Tue 05:49:41 PM 44.0667 -64.5167 63° Northeast 490 564 33,000  Level Moncton Center
Tue 05:50:41 PM 44.1333 -64.3500 61° Northeast 490 564 33,000  Level Moncton Center
Tue 05:51:41 PM 44.2000 -64.1667 63° Northeast 490 564 33,000  Level Moncton Center
Tue 05:52:41 PM 44.2500 -64.0000 67° East 490 564 33,000  Level Moncton Center
Tue 05:53:41 PM 44.3167 -63.8333 61° Northeast 490 564 33,000  Level Moncton Center
Tue 05:54:41 PM 44.3667 -63.6667 67° East 490 564 33,000  Level Moncton Center
Tue 05:55:41 PM 44.4333 -63.4833 63° Northeast 490 564 33,000  Level Moncton Center
Tue 05:56:41 PM 44.5000 -63.3167 61° Northeast 490 564 33,000  Level Moncton Center
Tue 05:57:41 PM 44.5500 -63.1500 67° East 490 564 33,000  Level Moncton Center
Tue 05:58:41 PM 44.6167 -62.9833 61° Northeast 490 564 33,000  Level Moncton Center
Tue 05:59:41 PM 44.6833 -62.8000 63° Northeast 490 564 33,000  Level Moncton Center
Tue 06:00:41 PM 44.7167 -62.6333 74° East 490 564 33,000  Level Moncton Center
Tue 06:01:41 PM 44.7833 -62.4333 65° Northeast 490 564 33,000  Level Moncton Center
Tue 06:02:41 PM 44.8500 -62.2667 61° Northeast 490 564 33,000  Level Moncton Center
Tue 06:03:19 PM 44.8833 -62.1833 61° Northeast 500 575 33,000  Level Gander Center
Tue 06:04:19 PM 44.9333 -61.9833 70° East 500 575 33,000  Level Gander Center
Tue 06:05:19 PM 45.0167 -61.8000 57° Northeast 500 575 33,000  Level Gander Center
Tue 06:06:19 PM 45.0667 -61.6333 67° East 500 575 33,000  Level Gander Center
Tue 06:07:19 PM 45.1333 -61.4500 63° Northeast 500 575 33,000  Level Gander Center
Tue 06:08:19 PM 45.1833 -61.2833 67° East 500 575 33,000  Level Gander Center
Tue 06:09:19 PM 45.2500 -61.1000 63° Northeast 500 575 33,000  Level Gander Center
Tue 06:10:19 PM 45.3000 -60.9333 67° East 500 575 33,000  Level Gander Center
Tue 06:11:19 PM 45.3667 -60.7333 65° Northeast 500 575 33,000  Level Gander Center
Tue 06:12:19 PM 45.4000 -60.5500 75° East 500 575 33,000  Level Gander Center
Tue 06:13:19 PM 45.4667 -60.3500 65° Northeast 500 575 33,000  Level Gander Center
Tue 06:14:19 PM 45.5167 -60.1833 67° East 500 575 33,000  Level Gander Center
Tue 06:15:19 PM 45.5667 -60.0000 69° East 500 575 33,000  Level Gander Center
Tue 06:16:19 PM 45.6333 -59.8333 60° Northeast 500 575 33,000  Level Gander Center
Tue 06:17:19 PM 45.6833 -59.6333 70° East 510 587 33,000  Level Gander Center
Tue 06:18:19 PM 45.7500 -59.4333 64° Northeast 510 587 33,000  Level Gander Center
Tue 06:19:19 PM 45.8000 -59.2667 67° East 520 598 33,000  Level Gander Center
Tue 06:20:19 PM 45.8500 -59.0500 72° East 520 598 33,000  Level Gander Center
Tue 06:21:19 PM 45.9167 -58.8833 60° Northeast 530 610 33,000  Level Gander Center
Tue 06:22:19 PM 45.9833 -58.6667 66° East 540 621 33,000  Level Gander Center
Tue 06:23:19 PM 46.0167 -58.4667 76° East 540 621 33,000  Level Gander Center
Tue 06:24:19 PM 46.0833 -58.2667 64° Northeast 550 633 33,000  Level Gander Center
Tue 06:25:19 PM 46.1500 -58.0833 62° Northeast 550 633 33,000  Level Gander Center
Tue 06:26:19 PM 46.2000 -57.8500 73° East 550 633 33,000  Level Gander Center
Tue 06:27:19 PM 46.2500 -57.6667 68° East 550 633 33,000  Level Gander Center
Tue 06:28:19 PM 46.3333 -57.4333 63° Northeast 550 633 33,000  Level Gander Center
Tue 06:29:19 PM 46.3667 -57.2500 75° East 550 633 33,000  Level Gander Center
Tue 06:30:19 PM 46.4333 -57.0500 64° Northeast 540 621 33,000  Level Gander Center
Tue 06:31:19 PM 46.4833 -56.8500 70° East 540 621 33,000  Level Gander Center
Tue 06:32:19 PM 46.5333 -56.6500 70° East 530 610 33,000  Level Gander Center
Tue 06:33:19 PM 46.5833 -56.4500 70° East 530 610 33,000 350 Level Gander Center
Tue 06:34:19 PM 46.6333 -56.2167 73° East 540 621 33,700 500 Climbing Gander Center
Tue 06:35:19 PM 46.6833 -56.0167 70° East 550 633 34,000 150 Climbing Gander Center
Tue 06:36:19 PM 46.7500 -55.8167 64° Northeast 550 633 34,000  Level Gander Center
Tue 06:37:19 PM 46.7833 -55.6000 77° East 540 621 34,000  Level Gander Center
Tue 06:38:19 PM 46.8333 -55.4000 70° East 540 621 34,000  Level Gander Center
Tue 06:39:19 PM 46.8833 -55.2000 70° East 530 610 34,000  Level Gander Center
Tue 06:40:19 PM 46.9333 -55.0000 70° East 540 621 34,000  Level Gander Center
Tue 06:41:19 PM 46.9667 -54.8000 76° East 540 621 34,000  Level Gander Center
Tue 06:42:19 PM 47.0333 -54.5667 67° East 540 621 34,000  Level Gander Center
Tue 06:43:19 PM 47.0833 -54.3667 70° East 540 621 34,000  Level Gander Center
Tue 06:44:19 PM 47.1333 -54.1500 71° East 550 633 34,000  Level Gander Center
Tue 06:45:19 PM 47.1667 -53.9333 77° East 550 633 34,000  Level Gander Center
Tue 06:46:19 PM 47.2167 -53.7333 70° East 550 633 34,000  Level Gander Center
Tue 06:47:19 PM 47.2833 -53.5167 66° East 550 633 34,000  Level Gander Center
Tue 06:48:19 PM 47.3167 -53.3000 77° East 550 633 34,000  Level Gander Center
Tue 06:49:19 PM 47.3667 -53.0833 71° East 550 633 34,000  Level Gander Center
Tue 06:50:19 PM 47.4167 -52.8833 70° East 550 633 34,000  Level Gander Center
Tue 06:51:19 PM 47.4500 -52.6500 78° East 550 633 34,000  Level Gander Center
Tue 06:52:19 PM 47.5000 -52.4500 70° East 550 633 34,000  Level Gander Center
Tue 06:53:19 PM 47.5500 -52.2167 72° East 540 621 34,000  Level Gander Center
Tue 06:54:19 PM 47.5833 -52.0333 75° East 540 621 34,000  Level Gander Center
Tue 06:55:19 PM 47.6333 -51.8000 72° East 540 621 34,000  Level Gander Center
Tue 06:56:19 PM 47.6833 -51.5833 71° East 540 621 34,000  Level Gander Center
Tue 06:57:19 PM 47.7000 -51.3667 83° East 540 621 34,000  Level Gander Center
Tue 06:58:19 PM 47.7500 -51.1500 71° East 540 621 34,000  Level Gander Center
Tue 06:59:19 PM 47.7833 -50.9500 76° East 540 621 34,000  Level Gander Center
Tue 07:00:19 PM 47.8333 -50.7333 71° East 540 621 34,000  Level Gander Center
Tue 07:01:19 PM 47.8833 -50.5167 71° East 540 621 34,000  Level Gander Center
Tue 07:02:19 PM 47.9167 -50.2833 78° East 540 621 34,000  Level Gander Center
Tue 07:03:19 PM 47.9500 -50.0833 76° East 540 621 34,000  Level Gander Center
Tue 07:04:19 PM 48.0000 -49.8667 71° East 540 621 34,000  Level Gander Center
Tue 07:05:19 PM 48.0500 -49.6500 71° East 540 621 34,000  Level Gander Center
Tue 07:06:19 PM 48.0833 -49.4500 76° East 540 621 34,000  Level Gander Center
Tue 07:07:19 PM 48.1333 -49.2333 71° East 540 621 34,000  Level Gander Center
Tue 07:08:19 PM 48.2000 -49.0167 65° Northeast 540 621 34,000  Level Gander Center
Tue 07:09:19 PM 48.2333 -48.8000 77° East 540 621 34,000  Level Gander Center
Tue 07:10:19 PM 48.2833 -48.5833 71° East 540 621 34,000  Level Gander Center
Tue 07:11:19 PM 48.3500 -48.3667 65° Northeast 540 621 34,000  Level Gander Center
Tue 07:12:19 PM 48.3833 -48.1833 75° East 540 621 34,000  Level Gander Center
Tue 07:13:19 PM 48.4500 -47.9667 65° Northeast 540 621 34,000  Level Gander Center
Tue 07:14:19 PM 48.4833 -47.7500 77° East 540 621 34,000  Level Gander Center
Tue 07:15:19 PM 48.5333 -47.5333 71° East 540 621 34,000  Level Gander Center
Tue 07:16:19 PM 48.5833 -47.3167 71° East 540 621 34,000  Level Gander Center
Tue 07:17:19 PM 48.6333 -47.1167 69° East 540 621 34,000  Level Gander Center
Tue 07:21:00 PM 48.7068 -46.7933 71° East  Level FlightAware Approximate
Tue 07:28:00 PM 49.0027 -45.4388 71° East  Level FlightAware Approximate
Tue 07:29:00 PM 49.0437 -45.2440 72° East  Level FlightAware Approximate
Tue 07:30:00 PM 49.0843 -45.0488 72° East  Level FlightAware Approximate
Tue 07:31:00 PM 49.1246 -44.8534 72° East  Level FlightAware Approximate
Tue 07:32:00 PM 49.1646 -44.6576 73° East  Level FlightAware Approximate
Tue 07:33:00 PM 49.2043 -44.4616 73° East  Level FlightAware Approximate
Tue 07:34:00 PM 49.2436 -44.2652 73° East  Level FlightAware Approximate
Tue 07:35:00 PM 49.2826 -44.0685 73° East  Level FlightAware Approximate
Tue 07:36:00 PM 49.3212 -43.8714 73° East  Level FlightAware Approximate
Tue 07:37:00 PM 49.3595 -43.6741 73° East  Level FlightAware Approximate
Tue 07:38:00 PM 49.3975 -43.4765 73° East  Level FlightAware Approximate
Tue 07:39:00 PM 49.4352 -43.2786 74° East  Level FlightAware Approximate
Tue 07:40:00 PM 49.4725 -43.0803 74° East  Level FlightAware Approximate
Tue 07:41:00 PM 49.5094 -42.8818 74° East  Level FlightAware Approximate
Tue 07:42:00 PM 49.5460 -42.6830 74° East  Level FlightAware Approximate
Tue 07:43:00 PM 49.5823 -42.4838 74° East  Level FlightAware Approximate
Tue 07:44:00 PM 49.6182 -42.2844 74° East  Level FlightAware Approximate
Tue 07:45:00 PM 49.6529 -42.0897 75° East  Level FlightAware Approximate
Tue 07:46:00 PM 49.6870 -41.8949 75° East  Level FlightAware Approximate
Tue 07:47:00 PM 49.7208 -41.6999 75° East  Level FlightAware Approximate
Tue 07:48:00 PM 49.7543 -41.5046 75° East  Level FlightAware Approximate
Tue 07:49:00 PM 49.7875 -41.3090 75° East  Level FlightAware Approximate
Tue 07:50:00 PM 49.8204 -41.1132 75° East  Level FlightAware Approximate
Tue 07:51:00 PM 49.8529 -40.9171 76° East  Level FlightAware Approximate
Tue 07:52:00 PM 49.8851 -40.7207 76° East  Level FlightAware Approximate
Tue 07:53:00 PM 49.9169 -40.5241 76° East  Level FlightAware Approximate
Tue 07:54:00 PM 49.9484 -40.3273 76° East  Level FlightAware Approximate
Tue 07:55:00 PM 49.9796 -40.1301 76° East  Level FlightAware Approximate
Tue 07:56:00 PM 50.0163 -39.9356 69° East  Level FlightAware Approximate
Tue 07:57:00 PM 50.0638 -39.7462 69° East  Level FlightAware Approximate
Tue 07:58:00 PM 50.1111 -39.5565 69° East  Level FlightAware Approximate
Tue 07:59:00 PM 50.1580 -39.3663 69° East  Level FlightAware Approximate
Tue 08:00:00 PM 50.2047 -39.1759 69° East  Level FlightAware Approximate
Tue 08:01:00 PM 50.2510 -38.9850 69° East  Level FlightAware Approximate
Tue 08:02:00 PM 50.2970 -38.7938 69° East  Level FlightAware Approximate
Tue 08:03:00 PM 50.3427 -38.6022 69° East  Level FlightAware Approximate
Tue 08:04:00 PM 50.3880 -38.4102 70° East  Level FlightAware Approximate
Tue 08:05:00 PM 50.4331 -38.2179 70° East  Level FlightAware Approximate
Tue 08:06:00 PM 50.4778 -38.0252 70° East  Level FlightAware Approximate
Tue 08:07:00 PM 50.5222 -37.8321 70° East  Level FlightAware Approximate
Tue 08:08:00 PM 50.5663 -37.6387 70° East  Level FlightAware Approximate
Tue 08:09:00 PM 50.6101 -37.4449 70° East  Level FlightAware Approximate
Tue 08:10:00 PM 50.6536 -37.2508 70° East  Level FlightAware Approximate
Tue 08:11:00 PM 50.6967 -37.0563 71° East  Level FlightAware Approximate
Tue 08:12:00 PM 50.7395 -36.8614 71° East  Level FlightAware Approximate
Tue 08:13:00 PM 50.7820 -36.6662 71° East  Level FlightAware Approximate
Tue 08:14:00 PM 50.8241 -36.4706 71° East  Level FlightAware Approximate
Tue 08:15:00 PM 50.8660 -36.2747 71° East  Level FlightAware Approximate
Tue 08:16:00 PM 50.9075 -36.0784 71° East  Level FlightAware Approximate
Tue 08:17:00 PM 50.9486 -35.8818 72° East  Level FlightAware Approximate
Tue 08:18:00 PM 50.9895 -35.6848 72° East  Level FlightAware Approximate
Tue 08:19:00 PM 51.0300 -35.4875 72° East  Level FlightAware Approximate
Tue 08:20:00 PM 51.0702 -35.2899 72° East  Level FlightAware Approximate
Tue 08:21:00 PM 51.1100 -35.0919 72° East  Level FlightAware Approximate
Tue 08:22:00 PM 51.1495 -34.8935 72° East  Level FlightAware Approximate
Tue 08:23:00 PM 51.1887 -34.6948 72° East  Level FlightAware Approximate
Tue 08:24:00 PM 51.2275 -34.4958 73° East  Level FlightAware Approximate
Tue 08:25:00 PM 51.2660 -34.2965 73° East  Level FlightAware Approximate
Tue 08:26:00 PM 51.3042 -34.0968 73° East  Level FlightAware Approximate
Tue 08:27:00 PM 51.3420 -33.8968 73° East  Level FlightAware Approximate
Tue 08:28:00 PM 51.3795 -33.6964 73° East  Level FlightAware Approximate
Tue 08:29:00 PM 51.4166 -33.4958 73° East  Level FlightAware Approximate
Tue 08:30:00 PM 51.4534 -33.2948 74° East  Level FlightAware Approximate
Tue 08:31:00 PM 51.4898 -33.0935 74° East  Level FlightAware Approximate
Tue 08:32:00 PM 51.5259 -32.8918 74° East  Level FlightAware Approximate
Tue 08:33:00 PM 51.5617 -32.6899 74° East  Level FlightAware Approximate
Tue 08:34:00 PM 51.5971 -32.4876 74° East  Level FlightAware Approximate
Tue 08:35:00 PM 51.6321 -32.2850 74° East  Level FlightAware Approximate
Tue 08:36:00 PM 51.6668 -32.0821 75° East  Level FlightAware Approximate
Tue 08:37:00 PM 51.7012 -31.8789 75° East  Level FlightAware Approximate
Tue 08:38:00 PM 51.7352 -31.6754 75° East  Level FlightAware Approximate
Tue 08:39:00 PM 51.7689 -31.4716 75° East  Level FlightAware Approximate
Tue 08:40:00 PM 51.8022 -31.2675 75° East  Level FlightAware Approximate
Tue 08:41:00 PM 51.8351 -31.0630 75° East  Level FlightAware Approximate
Tue 08:42:00 PM 51.8677 -30.8583 75° East  Level FlightAware Approximate
Tue 08:43:00 PM 51.8999 -30.6533 76° East  Level FlightAware Approximate
Tue 08:44:00 PM 51.9318 -30.4480 76° East  Level FlightAware Approximate
Tue 08:45:00 PM 51.9633 -30.2424 76° East  Level FlightAware Approximate
Tue 08:46:00 PM 51.9945 -30.0365 76° East  Level FlightAware Approximate
Tue 08:47:00 PM 52.0073 -29.8259 86° East  Level FlightAware Approximate
Tue 08:48:00 PM 52.0157 -29.6142 86° East  Level FlightAware Approximate
Tue 08:49:00 PM 52.0238 -29.4024 86° East  Level FlightAware Approximate
Tue 08:50:00 PM 52.0316 -29.1905 87° East  Level FlightAware Approximate
Tue 08:51:00 PM 52.0389 -28.9786 87° East  Level FlightAware Approximate
Tue 08:52:00 PM 52.0459 -28.7666 87° East  Level FlightAware Approximate
Tue 08:53:00 PM 52.0524 -28.5545 87° East  Level FlightAware Approximate
Tue 08:54:00 PM 52.0586 -28.3424 87° East  Level FlightAware Approximate
Tue 08:55:00 PM 52.0645 -28.1302 87° East  Level FlightAware Approximate
Tue 08:56:00 PM 52.0699 -27.9179 88° East  Level FlightAware Approximate
Tue 08:57:00 PM 52.0750 -27.7056 88° East  Level FlightAware Approximate
Tue 08:58:00 PM 52.0796 -27.4933 88° East  Level FlightAware Approximate
Tue 08:59:00 PM 52.0839 -27.2809 88° East  Level FlightAware Approximate
Tue 09:00:00 PM 52.0878 -27.0685 88° East  Level FlightAware Approximate
Tue 09:01:00 PM 52.0914 -26.8560 88° East  Level FlightAware Approximate
Tue 09:02:00 PM 52.0945 -26.6435 89° East  Level FlightAware Approximate
Tue 09:03:00 PM 52.0973 -26.4310 89° East  Level FlightAware Approximate
Tue 09:04:00 PM 52.0997 -26.2185 89° East  Level FlightAware Approximate
Tue 09:05:00 PM 52.1017 -26.0059 89° East  Level FlightAware Approximate
Tue 09:06:00 PM 52.1033 -25.7933 89° East  Level FlightAware Approximate
Tue 09:07:00 PM 52.1045 -25.5807 89° East  Level FlightAware Approximate
Tue 09:08:00 PM 52.1054 -25.3681 90° East  Level FlightAware Approximate
Tue 09:09:00 PM 52.1058 -25.1555 90° East  Level FlightAware Approximate
Tue 09:10:00 PM 52.1059 -24.9429 90° East  Level FlightAware Approximate
Tue 09:11:00 PM 52.1056 -24.7303 90° East  Level FlightAware Approximate
Tue 09:12:00 PM 52.1049 -24.5177 90° East  Level FlightAware Approximate
Tue 09:13:00 PM 52.1039 -24.3051 90° East  Level FlightAware Approximate
Tue 09:14:00 PM 52.1025 -24.0925 91° East  Level FlightAware Approximate
Tue 09:15:00 PM 52.1006 -23.8799 91° East  Level FlightAware Approximate
Tue 09:16:00 PM 52.0984 -23.6674 91° East  Level FlightAware Approximate
Tue 09:17:00 PM 52.0958 -23.4549 91° East  Level FlightAware Approximate
Tue 09:18:00 PM 52.0929 -23.2424 91° East  Level FlightAware Approximate
Tue 09:19:00 PM 52.0895 -23.0299 91° East  Level FlightAware Approximate
Tue 09:20:00 PM 52.0858 -22.8174 92° East  Level FlightAware Approximate
Tue 09:21:00 PM 52.0817 -22.6050 92° East  Level FlightAware Approximate
Tue 09:22:00 PM 52.0772 -22.3927 92° East  Level FlightAware Approximate
Tue 09:23:00 PM 52.0723 -22.1804 92° East  Level FlightAware Approximate
Tue 09:24:00 PM 52.0670 -21.9681 92° East  Level FlightAware Approximate
Tue 09:25:00 PM 52.0614 -21.7559 92° East  Level FlightAware Approximate
Tue 09:26:00 PM 52.0554 -21.5437 93° East  Level FlightAware Approximate
Tue 09:27:00 PM 52.0490 -21.3316 93° East  Level FlightAware Approximate
Tue 09:28:00 PM 52.0422 -21.1196 93° East  Level FlightAware Approximate
Tue 09:29:00 PM 52.0350 -20.9076 93° East  Level FlightAware Approximate
Tue 09:30:00 PM 52.0275 -20.6957 93° East  Level FlightAware Approximate
Tue 09:31:00 PM 52.0195 -20.4839 93° East  Level FlightAware Approximate
Tue 09:32:00 PM 52.0112 -20.2721 94° East  Level FlightAware Approximate
Tue 09:33:00 PM 52.0025 -20.0605 94° East  Level FlightAware Approximate
Tue 09:34:00 PM 52.0166 -19.8508 80° East  Level FlightAware Approximate
Tue 09:35:00 PM 52.0396 -19.6419 80° East  Level FlightAware Approximate
Tue 09:36:00 PM 52.0622 -19.4327 80° East  Level FlightAware Approximate
Tue 09:37:00 PM 52.0844 -19.2234 80° East  Level FlightAware Approximate
Tue 09:38:00 PM 52.1063 -19.0138 80° East  Level FlightAware Approximate
Tue 09:39:00 PM 52.1278 -18.8040 80° East  Level FlightAware Approximate
Tue 09:40:00 PM 52.1489 -18.5941 81° East  Level FlightAware Approximate
Tue 09:41:00 PM 52.1696 -18.3839 81° East  Level FlightAware Approximate
Tue 09:42:00 PM 52.1900 -18.1735 81° East  Level FlightAware Approximate
Tue 09:43:00 PM 52.2100 -17.9630 81° East  Level FlightAware Approximate
Tue 09:44:00 PM 52.2296 -17.7523 81° East  Level FlightAware Approximate
Tue 09:45:00 PM 52.2488 -17.5413 81° East  Level FlightAware Approximate
Tue 09:46:00 PM 52.2677 -17.3302 82° East  Level FlightAware Approximate
Tue 09:47:00 PM 52.2862 -17.1189 82° East  Level FlightAware Approximate
Tue 09:48:00 PM 52.3043 -16.9075 82° East  Level FlightAware Approximate
Tue 09:49:00 PM 52.3220 -16.6958 82° East  Level FlightAware Approximate
Tue 09:50:00 PM 52.3394 -16.4840 82° East  Level FlightAware Approximate
Tue 09:51:00 PM 52.3563 -16.2721 82° East  Level FlightAware Approximate
Tue 09:52:00 PM 52.3729 -16.0600 83° East  Level FlightAware Approximate
Tue 09:53:00 PM 52.3891 -15.8477 83° East  Level FlightAware Approximate
Tue 09:54:00 PM 52.4050 -15.6353 83° East  Level FlightAware Approximate
Tue 09:55:00 PM 52.4204 -15.4227 83° East  Level FlightAware Approximate
Tue 09:56:00 PM 52.4355 -15.2099 83° East  Level FlightAware Approximate
Tue 09:57:00 PM 52.4502 -14.9971 83° East  Level FlightAware Approximate
Tue 09:58:00 PM 52.4651 -14.7842 83° East  Level FlightAware Approximate
Tue 09:59:00 PM 52.4797 -14.5711 84° East  Level FlightAware Approximate
Tue 10:00:00 PM 52.4941 -14.3580 84° East  Level FlightAware Approximate
Tue 10:01:00 PM 52.5081 -14.1447 84° East  Level FlightAware Approximate
Tue 10:02:00 PM 52.5219 -13.9313 84° East  Level FlightAware Approximate
Tue 10:03:00 PM 52.5352 -13.7177 84° East  Level FlightAware Approximate
Tue 10:04:00 PM 52.5481 -13.5041 84° East  Level FlightAware Approximate
Tue 10:05:00 PM 52.5606 -13.2903 84° East  Level FlightAware Approximate
Tue 10:06:00 PM 52.5728 -13.0764 85° East  Level FlightAware Approximate
Tue 10:07:00 PM 52.5846 -12.8624 85° East  Level FlightAware Approximate
Tue 10:08:00 PM 52.5960 -12.6482 85° East  Level FlightAware Approximate
Tue 10:09:00 PM 52.6070 -12.4340 85° East  Level FlightAware Approximate
Tue 10:10:00 PM 52.6176 -12.2196 85° East  Level FlightAware Approximate
Tue 10:11:00 PM 52.6278 -12.0052 85° East  Level FlightAware Approximate
Tue 10:12:00 PM 52.6377 -11.7906 86° East  Level FlightAware Approximate
Tue 10:13:00 PM 52.6471 -11.5760 86° East  Level FlightAware Approximate
Tue 10:14:00 PM 52.6562 -11.3612 86° East  Level FlightAware Approximate
Tue 10:15:00 PM 52.6649 -11.1464 86° East  Level FlightAware Approximate
Tue 10:16:00 PM 52.6732 -10.9315 86° East  Level FlightAware Approximate
Tue 10:17:00 PM 52.6811 -10.7165 86° East  Level FlightAware Approximate
Tue 10:18:00 PM 52.6886 -10.5014 87° East  Level FlightAware Approximate
Tue 10:19:00 PM 52.6957 -10.2863 87° East  Level FlightAware Approximate
Tue 10:20:00 PM 52.7024 -10.0711 87° East  Level FlightAware Approximate
Tue 10:21:00 PM 52.7088 -9.8558 87° East  Level FlightAware Approximate
Tue 10:22:00 PM 52.7147 -9.6405 87° East  Level FlightAware Approximate
Tue 10:23:00 PM 52.7203 -9.4251 87° East  Level FlightAware Approximate
Tue 10:24:00 PM 52.7254 -9.2097 88° East  Level FlightAware Approximate
Tue 10:25:00 PM 52.7302 -8.9942 88° East  Level FlightAware Approximate
Tue 10:26:00 PM 52.7346 -8.7787 88° East  Level FlightAware Approximate
Tue 10:27:00 PM 52.7386 -8.5631 88° East  Level FlightAware Approximate
Tue 10:28:00 PM 52.7422 -8.3475 88° East  Level FlightAware Approximate
Tue 10:29:00 PM 52.7454 -8.1318 89° East  Level FlightAware Approximate
Tue 10:30:00 PM 52.7483 -7.9161 89° East  Level FlightAware Approximate
Tue 10:31:00 PM 52.7505 -7.7004 89° East  Level FlightAware Approximate
Tue 10:32:00 PM 52.7520 -7.4847 89° East  Level FlightAware Approximate
Tue 10:33:00 PM 52.7532 -7.2689 89° East  Level FlightAware Approximate
Tue 10:34:00 PM 52.7539 -7.0532 90° East  Level FlightAware Approximate
Tue 10:35:00 PM 52.7542 -6.8374 90° East  Level FlightAware Approximate
Tue 10:36:00 PM 52.7541 -6.6217 90° East  Level FlightAware Approximate
Tue 10:37:00 PM 52.7537 -6.4059 90° East  Level FlightAware Approximate
Tue 10:38:00 PM 52.7528 -6.1901 90° East  Level FlightAware Approximate
Tue 10:39:00 PM 52.7516 -5.9744 90° East  Level FlightAware Approximate
Tue 10:40:00 PM 52.7500 -5.7600 90° East  Level FlightAware Approximate
Tue 10:41:00 PM 52.7500 -5.5455 90° East  Level FlightAware Approximate
Tue 10:42:00 PM 52.7463 -5.3312 92° East  Level FlightAware Approximate
Tue 10:43:00 PM 52.7411 -5.1170 92° East  Level FlightAware Approximate
Tue 10:44:00 PM 52.7356 -4.9028 92° East  Level FlightAware Approximate
Tue 10:45:00 PM 52.7336 -4.6885 90° East  Level FlightAware Approximate
Tue 10:46:00 PM 52.7338 -4.4742 90° East  Level FlightAware Approximate
Tue 10:47:00 PM 52.7336 -4.2598 90° East  Level FlightAware Approximate
Tue 10:48:00 PM 52.7324 -4.0455 91° East  Level FlightAware Approximate
Tue 10:49:00 PM 52.7300 -3.8311 91° East  Level FlightAware Approximate
Tue 10:50:00 PM 52.7272 -3.6169 91° East  Level FlightAware Approximate
Tue 10:51:00 PM 52.7240 -3.4026 91° East  Level FlightAware Approximate
Tue 10:52:00 PM 52.7205 -3.1884 91° East  Level FlightAware Approximate
Tue 10:53:00 PM 52.7167 -2.9742 90° East  Level FlightAware Approximate
Tue 10:54:00 PM 52.7167 -2.7599 90° East  Level FlightAware Approximate
Tue 10:55:00 PM 52.7022 -2.5471 97° East  Level FlightAware Approximate
Tue 10:56:00 PM 52.6974 -2.3332 91° East  Level FlightAware Approximate
Tue 10:57:00 PM 52.6940 -2.1191 91° East  Level FlightAware Approximate
Tue 10:58:00 PM 52.6901 -1.9050 92° East  Level FlightAware Approximate
Tue 10:59:00 PM 52.6860 -1.6910 92° East  Level FlightAware Approximate
Tue 11:00:00 PM 52.6798 -1.4771 94° East  Level FlightAware Approximate
Tue 11:01:00 PM 52.6710 -1.2635 94° East  Level FlightAware Approximate
Tue 11:02:00 PM 52.6619 -1.0500 94° East  Level FlightAware Approximate
Tue 11:03:00 PM 52.6524 -0.8366 94° East  Level FlightAware Approximate
Tue 11:04:00 PM 52.6425 -0.6233 94° East  Level FlightAware Approximate
Tue 11:05:00 PM 52.6334 -0.4100 90° East  Level FlightAware Approximate
Tue 11:06:00 PM 52.6316 -0.1963 94° East  Level FlightAware Approximate
Tue 11:07:00 PM 52.6214 0.0169 94° East  Level FlightAware Approximate
Tue 11:08:00 PM 52.6109 0.2300 95° East  Level FlightAware Approximate
Tue 11:09:00 PM 52.5999 0.4429 95° East  Level FlightAware Approximate
Tue 11:10:00 PM 52.5886 0.6558 95° East  Level FlightAware Approximate
Tue 11:11:00 PM 52.5769 0.8685 95° East  Level FlightAware Approximate
Tue 11:12:00 PM 52.5648 1.0812 95° East  Level FlightAware Approximate
Tue 11:13:00 PM 52.5524 1.2937 95° East  Level FlightAware Approximate
Tue 11:14:00 PM 52.5386 1.5059 96° East  Level FlightAware Approximate
Tue 11:15:00 PM 52.5238 1.7179 97° East  Level FlightAware Approximate
Tue 11:16:00 PM 52.5167 1.9305 90° East  Level FlightAware Approximate
Tue 11:17:00 PM 52.4949 2.1407 100° East  Level FlightAware Approximate
Tue 11:18:00 PM 52.4815 2.3520 99° East  Level FlightAware Approximate
Tue 11:19:00 PM 52.4622 2.5626 97° East  Level FlightAware Approximate
Tue 11:20:00 PM 52.4471 2.7742 97° East  Level FlightAware Approximate
Tue 11:21:00 PM 52.4321 2.9857 96° East  Level FlightAware Approximate
Tue 11:22:00 PM 52.4177 3.1972 96° East  Level FlightAware Approximate
Tue 11:23:00 PM 52.4029 3.4086 96° East  Level FlightAware Approximate
Tue 11:24:00 PM 52.3901 3.6203 95° East  Level FlightAware Approximate
Tue 11:25:00 PM 52.3741 3.8312 99° East  Level FlightAware Approximate
Tue 11:26:00 PM 52.3541 4.0413 99° East  Level FlightAware Approximate
Tue 11:27:00 PM 52.3423 4.2523 98° East  Level FlightAware Approximate
Tue 11:28:00 PM 52.3213 4.4605 108° East  Level FlightAware Approximate
Tue 11:29:00 PM 52.3100 4.6705 102° East  Level FlightAware Approximate
Tue 11:30:00 PM 52.3000 4.7500 102° East  Level FlightAware Approximate

Login

Don't have an account? Register now (free) for customized features, flight alerts, and more!